createdAt,value
2022-10-23T00:02:01.110Z,21.87
2022-10-23T00:04:29.420Z,18.23
2022-10-23T00:07:00.468Z,19.80
2022-10-23T00:09:30.673Z,22.27
2022-10-23T00:12:00.471Z,23.13
2022-10-23T00:14:28.746Z,20.20
2022-10-23T00:16:59.539Z,21.27
2022-10-23T00:19:29.085Z,15.27
2022-10-23T00:21:57.342Z,16.97
2022-10-23T00:24:25.691Z,18.30
2022-10-23T00:26:53.913Z,19.27
2022-10-23T00:29:27.020Z,21.30
2022-10-23T00:31:55.319Z,20.87
2022-10-23T00:34:23.541Z,23.37
2022-10-23T00:36:51.830Z,16.27
2022-10-23T00:39:24.738Z,19.63
2022-10-23T00:41:52.976Z,21.10
2022-10-23T00:45:10.068Z,23.30
2022-10-23T00:47:39.886Z,20.13
2022-10-23T00:50:08.619Z,24.17
2022-10-23T00:52:38.315Z,19.90
2022-10-23T00:55:07.444Z,17.27
2022-10-23T00:57:35.581Z,18.30
2022-10-23T01:00:03.894Z,19.27
2022-10-23T01:02:34.797Z,22.90
2022-10-23T01:05:13.264Z,18.10
2022-10-23T01:07:47.797Z,18.20
2022-10-23T01:10:17.381Z,16.53
2022-10-23T01:12:48.287Z,21.50
2022-10-23T01:15:20.052Z,20.67
2022-10-23T01:17:51.048Z,17.80
2022-10-23T01:20:28.078Z,16.53
2022-10-23T01:23:06.764Z,19.17
2022-10-23T01:25:44.754Z,16.50
2022-10-23T01:28:16.494Z,18.37
2022-10-23T01:30:45.318Z,21.00
2022-10-23T01:33:15.854Z,18.00
2022-10-23T01:35:53.583Z,21.70
2022-10-23T01:38:25.440Z,18.40
2022-10-23T01:41:02.306Z,21.23
2022-10-23T01:43:32.812Z,19.77
2022-10-23T01:46:03.032Z,19.20
2022-10-23T01:48:31.853Z,19.70
2022-10-23T01:51:01.552Z,21.60
2022-10-23T01:53:31.497Z,22.63
2022-10-23T01:56:00.204Z,21.90
2022-10-23T01:58:28.302Z,20.23
2022-10-23T02:01:01.693Z,26.50
2022-10-23T02:03:30.078Z,22.13
2022-10-23T02:05:59.914Z,16.50
2022-10-23T02:08:28.603Z,19.73
2022-10-23T02:11:01.578Z,20.00
2022-10-23T02:13:32.750Z,20.53
2022-10-23T02:16:10.522Z,18.67
2022-10-23T02:18:41.738Z,19.00
2022-10-23T02:21:11.813Z,19.37
2022-10-23T02:23:41.953Z,19.57
2022-10-23T02:26:12.708Z,22.23
2022-10-23T02:28:42.930Z,15.10
2022-10-23T02:31:18.891Z,19.87
2022-10-23T02:33:54.477Z,20.47
2022-10-23T02:36:24.520Z,18.17
2022-10-23T02:38:54.571Z,22.37
2022-10-23T02:41:30.415Z,19.70
2022-10-23T02:44:04.879Z,19.43
2022-10-23T02:46:48.171Z,16.97
2022-10-23T02:49:18.977Z,19.87
2022-10-23T02:51:55.438Z,18.80
2022-10-23T02:54:30.436Z,18.60
2022-10-23T02:57:06.076Z,18.10
2022-10-23T02:59:38.457Z,22.67
2022-10-23T03:02:10.536Z,20.73
2022-10-23T03:04:39.320Z,14.90
2022-10-23T03:07:14.190Z,20.87
2022-10-23T03:09:45.861Z,21.87
2022-10-23T03:12:21.245Z,15.40
2022-10-23T03:14:55.728Z,14.77
2022-10-23T03:17:32.854Z,18.23
2022-10-23T03:20:01.653Z,18.97
2022-10-23T03:22:30.022Z,19.03
2022-10-23T03:24:58.370Z,18.70
2022-10-23T03:29:56.912Z,23.67
2022-10-23T03:32:25.170Z,19.10
2022-10-23T03:34:55.044Z,16.50
2022-10-23T03:37:23.196Z,19.53
2022-10-23T03:39:51.689Z,16.63
2022-10-23T03:42:21.617Z,14.13
2022-10-23T03:44:50.202Z,15.00
2022-10-23T03:47:25.863Z,19.03
2022-10-23T03:49:55.848Z,20.17
2022-10-23T03:54:53.423Z,18.67
2022-10-23T03:57:25.517Z,18.00
2022-10-23T03:59:53.661Z,17.07
2022-10-23T04:02:21.966Z,17.50
2022-10-23T04:04:51.592Z,17.03
2022-10-23T04:07:23.464Z,18.07
2022-10-23T04:09:54.604Z,21.23
2022-10-23T04:12:22.876Z,15.43
2022-10-23T04:14:52.853Z,15.67
2022-10-23T04:17:23.641Z,18.70
2022-10-23T04:19:52.223Z,17.87
2022-10-23T04:22:24.731Z,18.27
2022-10-23T04:24:57.058Z,20.10
2022-10-23T04:27:25.493Z,16.43
2022-10-23T04:29:55.609Z,21.20
2022-10-23T04:32:30.308Z,20.83
2022-10-23T04:34:58.660Z,20.90
2022-10-23T04:37:30.884Z,15.90
2022-10-23T04:39:59.327Z,18.37
2022-10-23T04:44:58.448Z,19.03
2022-10-23T04:47:26.647Z,22.90
2022-10-23T04:49:55.045Z,20.23
2022-10-23T04:52:23.331Z,17.17
2022-10-23T04:54:54.640Z,20.07
2022-10-23T04:57:22.810Z,16.37
2022-10-23T04:59:51.165Z,19.70
2022-10-23T05:02:20.589Z,20.37
2022-10-23T05:04:48.782Z,19.90
2022-10-23T05:07:17.125Z,17.63
2022-10-23T05:09:45.428Z,16.30
2022-10-23T05:12:15.237Z,17.20
2022-10-23T05:14:49.064Z,17.20
2022-10-23T05:17:20.876Z,17.40
2022-10-23T05:19:54.315Z,19.37
2022-10-23T05:22:22.603Z,18.03
2022-10-23T05:24:52.026Z,15.23
2022-10-23T05:27:24.101Z,18.67
2022-10-23T05:29:52.263Z,17.73
2022-10-23T05:32:29.575Z,16.53
2022-10-23T05:35:00.942Z,19.27
2022-10-23T05:37:29.076Z,21.13
2022-10-23T05:39:57.210Z,17.40
2022-10-23T05:42:27.160Z,14.90
2022-10-23T05:44:55.932Z,17.77
2022-10-23T05:47:24.575Z,18.30
2022-10-23T05:49:52.748Z,16.43
2022-10-23T05:52:24.405Z,13.93
2022-10-23T05:54:52.796Z,12.67
2022-10-23T05:57:30.033Z,13.80
2022-10-23T06:00:00.099Z,15.60
2022-10-23T06:02:30.091Z,16.17
2022-10-23T06:04:58.370Z,20.10
2022-10-23T06:07:33.573Z,16.00
2022-10-23T06:10:04.435Z,17.57
2022-10-23T06:12:40.225Z,13.67
2022-10-23T06:15:11.398Z,14.20
2022-10-23T06:17:46.083Z,13.67
2022-10-23T06:20:14.543Z,13.80
2022-10-23T06:22:43.167Z,22.93
2022-10-23T06:25:15.855Z,11.37
2022-10-23T06:27:46.572Z,13.80
2022-10-23T06:30:17.334Z,16.03
2022-10-23T06:32:48.833Z,12.40
2022-10-23T06:35:17.218Z,16.03
2022-10-23T06:37:45.539Z,10.37
2022-10-23T06:40:17.205Z,10.47
2022-10-23T06:42:45.499Z,14.83
2022-10-23T06:45:20.271Z,13.37
2022-10-23T06:47:48.621Z,9.80
2022-10-23T06:50:25.428Z,13.00
2022-10-23T06:53:03.513Z,10.43
2022-10-23T06:55:31.813Z,13.40
2022-10-23T06:58:02.452Z,10.70
2022-10-23T07:00:32.829Z,12.07
2022-10-23T07:03:21.754Z,10.40
2022-10-23T07:05:59.106Z,9.80
2022-10-23T07:08:32.449Z,13.20
2022-10-23T07:11:10.344Z,8.97
2022-10-23T07:13:46.033Z,12.27
2022-10-23T07:16:21.956Z,12.40
2022-10-23T07:18:50.802Z,9.10
2022-10-23T07:21:22.220Z,15.27
2022-10-23T07:23:59.766Z,9.40
2022-10-23T07:26:33.466Z,9.77
2022-10-23T07:29:02.720Z,10.47
2022-10-23T07:31:32.644Z,8.93
2022-10-23T07:34:06.328Z,10.87
2022-10-23T07:36:53.085Z,8.53
2022-10-23T07:40:29.708Z,11.17
2022-10-23T07:43:22.501Z,16.07
2022-10-23T07:45:56.245Z,11.50
2022-10-23T07:48:28.284Z,13.77
2022-10-23T07:51:05.320Z,9.67
2022-10-23T07:53:33.529Z,12.03
2022-10-23T07:56:04.602Z,14.93
2022-10-23T07:58:35.922Z,6.57
2022-10-23T08:01:05.082Z,9.03
2022-10-23T08:03:37.395Z,10.30
2022-10-23T08:06:46.575Z,8.90
2022-10-23T08:09:22.489Z,11.13
2022-10-23T08:11:54.953Z,8.97
2022-10-23T08:14:23.282Z,8.83
2022-10-23T08:16:51.778Z,10.03
2022-10-23T08:19:26.262Z,8.60
2022-10-23T08:21:57.286Z,6.73
2022-10-23T08:24:25.784Z,12.07
2022-10-23T08:26:54.222Z,10.10
2022-10-23T08:29:27.502Z,11.97
2022-10-23T08:31:58.125Z,9.73
2022-10-23T08:34:28.123Z,8.33
2022-10-23T08:36:56.538Z,11.33
2022-10-23T08:39:30.972Z,7.90
2022-10-23T08:42:01.081Z,9.20
2022-10-23T08:44:35.511Z,9.37
2022-10-23T08:47:08.524Z,7.90
2022-10-23T08:49:48.785Z,10.47
2022-10-23T08:52:41.094Z,7.40
2022-10-23T08:55:19.624Z,11.93
2022-10-23T08:57:55.982Z,8.57
2022-10-23T09:00:24.179Z,11.90
2022-10-23T09:02:53.354Z,9.77
2022-10-23T09:05:31.177Z,10.33
2022-10-23T09:08:24.830Z,12.37
2022-10-23T09:11:03.092Z,10.10
2022-10-23T09:14:05.165Z,8.87
2022-10-23T09:16:51.233Z,7.93
2022-10-23T09:19:20.887Z,7.73
2022-10-23T09:21:54.535Z,9.17
2022-10-23T09:24:30.394Z,10.13
2022-10-23T09:26:58.671Z,10.33
2022-10-23T09:29:27.861Z,9.40
2022-10-23T09:32:00.369Z,13.43
2022-10-23T09:34:33.141Z,10.13
2022-10-23T09:37:22.827Z,9.97
2022-10-23T09:39:54.090Z,9.27
2022-10-23T09:42:36.452Z,8.57
2022-10-23T09:45:27.683Z,9.10
2022-10-23T09:48:16.679Z,6.90
2022-10-23T09:50:50.660Z,6.33
2022-10-23T09:53:30.707Z,9.63
2022-10-23T09:56:02.016Z,5.20
2022-10-23T09:58:43.845Z,7.70
2022-10-23T10:01:32.913Z,8.00
2022-10-23T10:04:09.061Z,6.40
2022-10-23T10:06:43.316Z,12.73
2022-10-23T10:09:16.948Z,6.43
2022-10-23T10:11:48.751Z,11.17
2022-10-23T10:14:39.630Z,8.93
2022-10-23T10:17:10.591Z,6.50
2022-10-23T10:19:50.844Z,10.43
2022-10-23T10:22:27.872Z,9.53
2022-10-23T10:25:01.502Z,7.43
2022-10-23T10:27:42.048Z,6.93
2022-10-23T10:33:04.897Z,10.33
2022-10-23T10:35:51.488Z,6.67
2022-10-23T10:38:38.254Z,6.40
2022-10-23T10:41:38.624Z,9.37
2022-10-23T10:44:42.310Z,8.90
2022-10-23T10:47:56.920Z,5.97
2022-10-23T10:50:31.058Z,10.43
2022-10-23T10:53:14.136Z,6.30
2022-10-23T10:56:36.531Z,6.17
2022-10-23T10:59:16.955Z,4.30
2022-10-23T11:01:48.556Z,8.20
2022-10-23T11:04:23.829Z,8.43
2022-10-23T11:06:54.131Z,6.97
2022-10-23T11:09:25.698Z,5.37
2022-10-23T11:11:55.635Z,6.53
2022-10-23T11:14:32.304Z,5.80
2022-10-23T11:17:03.466Z,5.67
2022-10-23T11:19:35.993Z,8.07
2022-10-23T11:22:08.151Z,7.73
2022-10-23T11:25:28.874Z,6.87
2022-10-23T11:28:14.695Z,5.47
2022-10-23T11:30:51.339Z,5.77
2022-10-23T11:33:56.079Z,6.93
2022-10-23T11:36:43.345Z,4.40
2022-10-23T11:39:24.851Z,5.43
2022-10-23T11:41:55.125Z,5.40
2022-10-23T11:44:41.714Z,5.63
2022-10-23T11:47:39.985Z,9.53
2022-10-23T11:50:26.307Z,6.87
2022-10-23T11:53:15.593Z,7.53
2022-10-23T11:56:02.393Z,5.87
2022-10-23T11:58:41.877Z,5.27
2022-10-23T12:01:25.768Z,6.20
2022-10-23T12:04:05.819Z,11.23
2022-10-23T12:06:45.589Z,6.53
2022-10-23T12:09:33.826Z,3.70
2022-10-23T12:12:28.473Z,5.23
2022-10-23T12:15:08.875Z,7.77
2022-10-23T12:17:37.810Z,6.73
2022-10-23T12:20:27.402Z,6.07
2022-10-23T12:26:56.208Z,5.20
2022-10-23T12:29:45.564Z,7.73
2022-10-23T12:32:47.221Z,6.30
2022-10-23T12:35:50.801Z,6.17
2022-10-23T12:38:24.911Z,8.27
2022-10-23T12:40:56.053Z,5.70
2022-10-23T12:43:30.093Z,8.53
2022-10-23T12:45:59.664Z,4.67
2022-10-23T12:48:27.995Z,6.37
2022-10-23T12:50:56.717Z,10.60
2022-10-23T12:53:40.732Z,7.90
2022-10-23T12:56:08.918Z,7.73
2022-10-23T12:58:43.593Z,6.97
2022-10-23T13:01:24.383Z,3.57
2022-10-23T13:03:52.747Z,6.70
2022-10-23T13:06:23.072Z,6.73
2022-10-23T13:08:52.668Z,6.30
2022-10-23T13:11:21.489Z,12.90
2022-10-23T13:13:49.869Z,8.20
2022-10-23T13:16:18.872Z,6.70
2022-10-23T13:18:47.095Z,5.40
2022-10-23T13:21:18.893Z,6.43
2022-10-23T13:23:49.703Z,4.50
2022-10-23T13:26:48.616Z,10.53
2022-10-23T13:31:58.690Z,6.90
2022-10-23T13:34:30.198Z,9.33
2022-10-23T13:37:07.626Z,6.63
2022-10-23T13:39:35.801Z,5.87
2022-10-23T13:42:27.851Z,7.87
2022-10-23T13:44:56.209Z,7.73
2022-10-23T13:47:24.622Z,3.80
2022-10-23T13:49:58.889Z,6.27
2022-10-23T13:52:35.651Z,6.90
2022-10-23T13:55:04.055Z,9.80
2022-10-23T13:57:38.643Z,11.47
2022-10-23T14:00:10.313Z,6.47
2022-10-23T14:02:38.532Z,5.93
2022-10-23T14:05:06.870Z,7.77
2022-10-23T14:07:35.169Z,9.80
2022-10-23T14:10:15.266Z,6.20
2022-10-23T14:12:48.113Z,6.10
2022-10-23T14:15:18.896Z,9.90
2022-10-23T14:17:59.071Z,4.73
2022-10-23T14:20:31.544Z,5.50
2022-10-23T14:23:15.163Z,7.47
2022-10-23T14:25:47.053Z,6.97
2022-10-23T14:28:32.696Z,6.53
2022-10-23T14:31:06.744Z,7.07
2022-10-23T14:33:41.195Z,7.93
2022-10-23T14:36:14.674Z,4.90
2022-10-23T14:38:47.554Z,6.17
2022-10-23T14:41:16.583Z,4.60
2022-10-23T14:44:10.042Z,8.53
2022-10-23T14:46:38.567Z,10.20
2022-10-23T14:49:10.966Z,7.27
2022-10-23T14:51:39.250Z,7.67
2022-10-23T14:54:12.960Z,4.83
2022-10-23T14:56:41.263Z,9.00
2022-10-23T14:59:21.919Z,5.57
2022-10-23T15:01:50.354Z,7.07
2022-10-23T15:04:27.422Z,7.97
2022-10-23T15:06:55.521Z,7.73
2022-10-23T15:09:25.228Z,4.73
2022-10-23T15:11:53.555Z,6.53
2022-10-23T15:14:23.966Z,4.23
2022-10-23T15:16:52.383Z,4.60
2022-10-23T15:19:23.148Z,4.87
2022-10-23T15:21:51.641Z,7.17
2022-10-23T15:24:22.734Z,5.13
2022-10-23T15:26:51.966Z,7.03
2022-10-23T15:29:29.069Z,3.93
2022-10-23T15:31:59.003Z,7.47
2022-10-23T15:34:29.668Z,5.13
2022-10-23T15:36:58.159Z,5.47
2022-10-23T15:39:36.920Z,6.60
2022-10-23T15:42:06.728Z,10.43
2022-10-23T15:44:42.144Z,4.13
2022-10-23T15:47:11.871Z,3.83
2022-10-23T15:49:44.735Z,10.10
2022-10-23T15:52:13.428Z,6.80
2022-10-23T15:54:52.123Z,5.53
2022-10-23T15:57:20.291Z,5.70
2022-10-23T15:59:49.439Z,6.37
2022-10-23T16:02:23.265Z,8.27
2022-10-23T16:04:57.663Z,6.00
2022-10-23T16:07:25.834Z,9.10
2022-10-23T16:09:54.061Z,4.47
2022-10-23T16:12:30.853Z,4.83
2022-10-23T16:15:01.428Z,4.80
2022-10-23T16:17:40.723Z,5.43
2022-10-23T16:20:10.448Z,9.17
2022-10-23T16:22:41.383Z,8.50
2022-10-23T16:25:15.325Z,7.50
2022-10-23T16:27:44.135Z,5.80
2022-10-23T16:30:14.208Z,5.67
2022-10-23T16:32:44.115Z,3.63
2022-10-23T16:35:30.219Z,5.73
2022-10-23T16:38:05.476Z,5.17
2022-10-23T16:40:34.543Z,9.03
2022-10-23T16:43:03.009Z,4.10
2022-10-23T16:45:35.641Z,10.23
2022-10-23T16:48:08.267Z,5.60
2022-10-23T16:50:36.598Z,5.60
2022-10-23T16:53:04.662Z,4.30
2022-10-23T16:55:34.649Z,4.67
2022-10-23T16:58:07.352Z,11.20
2022-10-23T17:00:36.061Z,6.80
2022-10-23T17:03:04.478Z,5.17
2022-10-23T17:05:35.737Z,6.27
2022-10-23T17:08:03.942Z,5.43
2022-10-23T17:10:32.346Z,5.10
2022-10-23T17:13:00.475Z,3.77
2022-10-23T17:15:33.030Z,6.93
2022-10-23T17:18:04.125Z,6.10
2022-10-23T17:20:33.784Z,4.73
2022-10-23T17:23:03.356Z,5.50
2022-10-23T17:25:37.140Z,5.63
2022-10-23T17:28:05.902Z,6.60
2022-10-23T17:30:34.569Z,6.87
2022-10-23T17:33:04.972Z,5.20
2022-10-23T17:35:49.063Z,3.50
2022-10-23T17:38:25.008Z,4.63
2022-10-23T17:40:53.089Z,5.03
2022-10-23T17:43:21.218Z,8.20
2022-10-23T17:45:57.580Z,3.90
2022-10-23T17:48:31.263Z,5.90
2022-10-23T17:51:03.646Z,9.60
2022-10-23T17:53:33.374Z,6.37
2022-10-23T17:56:08.553Z,6.03
2022-10-23T17:58:36.815Z,5.07
2022-10-23T18:01:08.453Z,6.03
2022-10-23T18:03:39.317Z,5.73
2022-10-23T18:06:08.869Z,3.00
2022-10-23T18:08:38.616Z,7.67
2022-10-23T18:11:07.232Z,6.47
2022-10-23T18:13:35.717Z,6.93
2022-10-23T18:16:03.881Z,6.53
2022-10-23T18:18:32.553Z,5.20
2022-10-23T18:21:00.808Z,5.50
2022-10-23T18:23:29.104Z,5.80
2022-10-23T18:25:59.264Z,5.17
2022-10-23T18:28:27.526Z,8.97
2022-10-23T18:30:57.048Z,8.70
2022-10-23T18:33:26.628Z,7.10
2022-10-23T18:35:55.001Z,5.13
2022-10-23T18:38:23.335Z,8.73
2022-10-23T18:40:55.132Z,6.47
2022-10-23T18:43:42.731Z,5.87
2022-10-23T18:46:12.210Z,8.10
2022-10-23T18:48:40.924Z,7.03
2022-10-23T18:51:15.884Z,7.67
2022-10-23T18:53:47.419Z,9.57
2022-10-23T18:56:16.327Z,9.47
2022-10-23T18:58:49.498Z,10.67
2022-10-23T19:01:18.105Z,9.67
2022-10-23T19:03:48.362Z,6.03
2022-10-23T19:06:16.544Z,5.47
2022-10-23T19:08:45.260Z,5.10
2022-10-23T19:11:17.243Z,6.87
2022-10-23T19:13:49.531Z,6.97
2022-10-23T19:16:30.930Z,6.10
2022-10-23T19:19:00.460Z,3.40
2022-10-23T19:21:31.449Z,5.83
2022-10-23T19:24:01.764Z,3.37
2022-10-23T19:26:31.099Z,3.60
2022-10-23T19:28:59.312Z,4.50
2022-10-23T19:31:28.860Z,5.67
2022-10-23T19:34:04.305Z,3.83
2022-10-23T19:36:33.149Z,7.67
2022-10-23T19:39:01.612Z,3.37
2022-10-23T19:41:31.218Z,6.40
2022-10-23T19:43:59.825Z,3.77
2022-10-23T19:46:29.752Z,3.53
2022-10-23T19:48:57.945Z,5.03
2022-10-23T19:51:32.531Z,2.27
2022-10-23T19:54:01.893Z,2.23
2022-10-23T19:56:30.123Z,3.40
2022-10-23T19:58:58.493Z,4.57
2022-10-23T20:01:27.083Z,3.00
2022-10-23T20:03:56.789Z,2.47
2022-10-23T20:06:26.260Z,3.50
2022-10-23T20:08:55.074Z,3.33
2022-10-23T20:11:25.221Z,4.13
2022-10-23T20:13:54.440Z,1.57
2022-10-23T20:16:25.971Z,3.23
2022-10-23T20:18:55.075Z,3.93
2022-10-23T20:21:25.531Z,4.17
2022-10-23T20:24:00.376Z,3.63
2022-10-23T20:26:34.527Z,5.63
2022-10-23T20:29:04.127Z,2.40
2022-10-23T20:31:36.748Z,5.70
2022-10-23T20:34:07.147Z,4.20
2022-10-23T20:36:41.218Z,7.60
2022-10-23T20:39:13.721Z,3.13
2022-10-23T20:41:45.861Z,2.57
2022-10-23T20:46:46.393Z,5.27
2022-10-23T20:49:15.098Z,5.50
2022-10-23T20:51:45.615Z,4.07
2022-10-23T20:54:17.181Z,4.53
2022-10-23T20:56:48.278Z,6.97
2022-10-23T20:59:21.256Z,6.90
2022-10-23T21:01:53.556Z,5.60
2022-10-23T21:04:23.607Z,7.07
2022-10-23T21:07:10.847Z,6.30
2022-10-23T21:09:39.737Z,9.20
2022-10-23T21:12:09.685Z,11.47
2022-10-23T21:14:38.547Z,11.17
2022-10-23T21:17:08.782Z,8.30
2022-10-23T21:19:37.115Z,6.97
2022-10-23T21:22:06.854Z,5.00
2022-10-23T21:24:35.099Z,6.20
2022-10-23T21:27:05.694Z,5.10
2022-10-23T21:29:33.996Z,4.43
2022-10-23T21:32:02.578Z,5.83
2022-10-23T21:34:31.147Z,3.37
2022-10-23T21:37:17.652Z,4.50
2022-10-23T21:39:49.142Z,3.27
2022-10-23T21:42:19.303Z,4.37
2022-10-23T21:44:47.594Z,6.63
2022-10-23T21:47:15.904Z,3.43
2022-10-23T21:49:44.206Z,2.90
2022-10-23T21:52:17.579Z,5.53
2022-10-23T21:54:52.964Z,4.07
2022-10-23T21:57:21.391Z,5.87
2022-10-23T21:59:49.791Z,3.97
2022-10-23T22:02:24.748Z,4.03
2022-10-23T22:04:56.217Z,5.23
2022-10-23T22:07:24.550Z,9.30
2022-10-23T22:09:54.889Z,2.67
2022-10-23T22:12:26.257Z,3.97
2022-10-23T22:14:54.425Z,2.07
2022-10-23T22:17:23.735Z,4.13
2022-10-23T22:19:52.123Z,2.47
2022-10-23T22:22:24.230Z,3.40
2022-10-23T22:24:54.344Z,4.43
2022-10-23T22:27:22.510Z,3.53
2022-10-23T22:29:50.647Z,3.73
2022-10-23T22:32:18.937Z,3.83
2022-10-23T22:34:53.445Z,3.87
2022-10-23T22:37:22.293Z,4.23
2022-10-23T22:39:53.624Z,2.67
2022-10-23T22:42:23.152Z,2.63
2022-10-23T22:44:51.355Z,8.47
2022-10-23T22:47:21.946Z,2.07
2022-10-23T22:49:50.491Z,4.00
2022-10-23T22:52:19.838Z,5.03
2022-10-23T22:54:51.179Z,4.37
2022-10-23T22:57:23.002Z,4.80
2022-10-23T22:59:51.307Z,3.03
2022-10-23T23:02:19.518Z,3.47
2022-10-23T23:04:47.644Z,3.07
2022-10-23T23:07:19.047Z,3.57
2022-10-23T23:09:47.518Z,3.77
2022-10-23T23:12:15.941Z,4.20
2022-10-23T23:14:52.976Z,3.27
2022-10-23T23:17:27.806Z,2.27
2022-10-23T23:19:56.542Z,3.23
2022-10-23T23:24:53.073Z,6.40
2022-10-23T23:27:24.723Z,2.47
2022-10-23T23:29:54.848Z,5.27
2022-10-23T23:32:23.358Z,4.53
2022-10-23T23:34:51.696Z,6.37
2022-10-23T23:37:20.037Z,3.40
2022-10-23T23:39:48.181Z,3.07
2022-10-23T23:42:16.334Z,5.47
2022-10-23T23:44:55.766Z,5.67
2022-10-23T23:47:33.974Z,6.57
2022-10-23T23:50:02.520Z,8.40
2022-10-23T23:52:30.724Z,7.53
2022-10-23T23:54:58.985Z,3.30
2022-10-23T23:57:27.250Z,3.67
2022-10-23T23:59:56.647Z,2.57
